createdAt,value
2022-09-23T00:02:11.112Z,98743.75
2022-09-23T00:04:37.346Z,98753.16
2022-09-23T00:07:03.557Z,98746.69
2022-09-23T00:09:29.679Z,98745.38
2022-09-23T00:11:55.828Z,98749.84
2022-09-23T00:14:22.067Z,98748.84
2022-09-23T00:16:48.341Z,98753.16
2022-09-23T00:19:14.531Z,98747.84
2022-09-23T00:21:40.717Z,98751.19
2022-09-23T00:24:06.953Z,98745.69
2022-09-23T00:26:33.138Z,98739.09
2022-09-23T00:28:59.327Z,98735.28
2022-09-23T00:31:25.528Z,98736.91
2022-09-23T00:33:51.720Z,98737.75
2022-09-23T00:36:17.905Z,98728.97
2022-09-23T00:38:44.018Z,98727.31
2022-09-23T00:41:10.189Z,98737.09
2022-09-23T00:43:36.515Z,98730.81
2022-09-23T00:46:02.937Z,98730.97
2022-09-23T00:48:29.200Z,98728.81
2022-09-23T00:50:55.377Z,98738.28
2022-09-23T00:53:21.502Z,98726.50
2022-09-23T00:55:47.595Z,98724.16
2022-09-23T00:58:13.723Z,98726.66
2022-09-23T01:00:39.823Z,98723.81
2022-09-23T01:03:05.905Z,98715.88
2022-09-23T01:05:32.054Z,98712.72
2022-09-23T01:07:58.149Z,98710.91
2022-09-23T01:10:24.247Z,98710.41
2022-09-23T01:12:50.370Z,98698.31
2022-09-23T01:15:16.472Z,98705.94
2022-09-23T01:17:42.558Z,98698.97
2022-09-23T01:20:08.678Z,98697.16
2022-09-23T01:22:34.770Z,98698.31
2022-09-23T01:25:00.848Z,98697.50
2022-09-23T01:27:26.998Z,98692.34
2022-09-23T01:29:53.102Z,98688.53
2022-09-23T01:32:19.219Z,98691.03
2022-09-23T01:34:45.341Z,98683.22
2022-09-23T01:37:11.442Z,98684.72
2022-09-23T01:39:37.541Z,98690.03
2022-09-23T01:42:03.648Z,98676.09
2022-09-23T01:44:29.739Z,98691.47
2022-09-23T01:46:55.837Z,98686.03
2022-09-23T01:49:21.936Z,98680.38
2022-09-23T01:51:48.022Z,98682.13
2022-09-23T01:54:14.112Z,98690.47
2022-09-23T01:56:40.216Z,98684.53
2022-09-23T01:59:06.439Z,98689.69
2022-09-23T02:01:32.585Z,98681.66
2022-09-23T02:03:58.775Z,98678.31
2022-09-23T02:06:24.922Z,98681.81
2022-09-23T02:08:51.026Z,98678.84
2022-09-23T02:11:18.152Z,98683.63
2022-09-23T02:13:44.283Z,98680.16
2022-09-23T02:16:10.424Z,98675.38
2022-09-23T02:18:36.590Z,98672.75
2022-09-23T02:21:02.680Z,98674.41
2022-09-23T02:23:28.780Z,98670.44
2022-09-23T02:25:54.891Z,98675.03
2022-09-23T02:28:20.983Z,98676.06
2022-09-23T02:30:47.073Z,98663.16
2022-09-23T02:33:13.194Z,98654.53
2022-09-23T02:35:39.284Z,98662.19
2022-09-23T02:38:05.373Z,98656.41
2022-09-23T02:40:31.539Z,98656.88
2022-09-23T02:42:57.730Z,98656.34
2022-09-23T02:45:23.819Z,98656.03
2022-09-23T02:47:49.920Z,98660.44
2022-09-23T02:50:16.004Z,98656.44
2022-09-23T02:52:42.104Z,98653.59
2022-09-23T02:55:08.227Z,98647.81
2022-09-23T02:57:34.312Z,98645.50
2022-09-23T03:00:00.389Z,98641.69
2022-09-23T03:02:26.617Z,98637.75
2022-09-23T03:04:52.779Z,98639.38
2022-09-23T03:07:18.874Z,98635.59
2022-09-23T03:09:44.977Z,98633.56
2022-09-23T03:12:11.078Z,98624.94
2022-09-23T03:14:37.175Z,98632.94
2022-09-23T03:17:03.286Z,98620.31
2022-09-23T03:19:29.374Z,98618.88
2022-09-23T03:21:55.457Z,98613.75
2022-09-23T03:24:21.593Z,98618.69
2022-09-23T03:26:47.698Z,98611.94
2022-09-23T03:29:13.793Z,98607.78
2022-09-23T03:31:39.971Z,98610.59
2022-09-23T03:34:06.142Z,98613.25
2022-09-23T03:36:32.245Z,98608.94
2022-09-23T03:38:58.442Z,98617.91
2022-09-23T03:41:24.598Z,98606.53
2022-09-23T03:43:50.673Z,98605.81
2022-09-23T03:46:16.920Z,98596.72
2022-09-23T03:48:43.048Z,98598.50
2022-09-23T03:51:09.166Z,98597.88
2022-09-23T03:53:35.280Z,98591.03
2022-09-23T03:56:01.378Z,98599.47
2022-09-23T03:58:27.473Z,98604.06
2022-09-23T04:00:53.600Z,98597.31
2022-09-23T04:03:19.737Z,98594.13
2022-09-23T04:05:45.828Z,98599.94
2022-09-23T04:08:11.941Z,98592.22
2022-09-23T04:10:38.066Z,98590.25
2022-09-23T04:13:04.161Z,98592.84
2022-09-23T04:15:30.865Z,98586.09
2022-09-23T04:17:57.031Z,98588.91
2022-09-23T04:20:23.112Z,98589.44
2022-09-23T04:22:49.228Z,98591.22
2022-09-23T04:25:15.318Z,98585.91
2022-09-23T04:27:41.413Z,98592.00
2022-09-23T04:30:07.525Z,98586.19
2022-09-23T04:32:33.620Z,98583.72
2022-09-23T04:34:59.710Z,98585.69
2022-09-23T04:37:25.810Z,98586.72
2022-09-23T04:39:51.913Z,98585.34
2022-09-23T04:42:18.008Z,98586.81
2022-09-23T04:44:44.116Z,98585.22
2022-09-23T04:47:10.202Z,98580.59
2022-09-23T04:49:36.296Z,98576.19
2022-09-23T04:52:02.409Z,98584.56
2022-09-23T04:54:28.506Z,98574.91
2022-09-23T04:56:54.585Z,98572.66
2022-09-23T04:59:20.684Z,98570.72
2022-09-23T05:01:46.809Z,98562.97
2022-09-23T05:04:12.940Z,98562.59
2022-09-23T05:06:39.073Z,98561.94
2022-09-23T05:09:05.160Z,98560.06
2022-09-23T05:11:31.246Z,98547.72
2022-09-23T05:13:57.358Z,98548.84
2022-09-23T05:16:23.548Z,98546.34
2022-09-23T05:18:49.718Z,98546.97
2022-09-23T05:21:16.323Z,98553.16
2022-09-23T05:23:42.414Z,98549.56
2022-09-23T05:26:08.493Z,98545.00
2022-09-23T05:28:34.623Z,98552.22
2022-09-23T05:31:00.743Z,98560.91
2022-09-23T05:33:26.860Z,98558.44
2022-09-23T05:35:52.961Z,98559.75
2022-09-23T05:38:19.087Z,98552.38
2022-09-23T05:40:45.226Z,98551.53
2022-09-23T05:43:11.409Z,98556.03
2022-09-23T05:45:37.489Z,98554.53
2022-09-23T05:48:03.593Z,98564.44
2022-09-23T05:50:29.714Z,98565.44
2022-09-23T05:52:55.813Z,98563.09
2022-09-23T05:55:21.897Z,98568.84
2022-09-23T05:57:48.018Z,98572.34
2022-09-23T06:00:14.113Z,98572.97
2022-09-23T06:02:40.286Z,98564.03
2022-09-23T06:05:06.671Z,98569.25
2022-09-23T06:07:32.781Z,98561.69
2022-09-23T06:09:58.885Z,98565.31
2022-09-23T06:12:25.006Z,98559.91
2022-09-23T06:14:51.089Z,98557.91
2022-09-23T06:17:17.183Z,98560.06
2022-09-23T06:19:43.382Z,98563.56
2022-09-23T06:22:09.476Z,98564.59
2022-09-23T06:24:35.591Z,98564.59
2022-09-23T06:27:01.705Z,98563.28
2022-09-23T06:29:27.803Z,98557.34
2022-09-23T06:31:53.942Z,98557.06
2022-09-23T06:34:20.588Z,98552.13
2022-09-23T06:36:46.952Z,98557.72
2022-09-23T06:39:13.042Z,98553.41
2022-09-23T06:41:39.470Z,98551.13
2022-09-23T06:44:05.720Z,98554.91
2022-09-23T06:46:32.011Z,98563.53
2022-09-23T06:48:58.194Z,98560.88
2022-09-23T06:51:24.301Z,98559.75
2022-09-23T06:53:50.395Z,98555.78
2022-09-23T06:56:16.511Z,98555.44
2022-09-23T06:58:42.597Z,98559.78
2022-09-23T07:01:08.692Z,98558.16
2022-09-23T07:03:34.804Z,98555.84
2022-09-23T07:06:00.911Z,98557.03
2022-09-23T07:08:26.994Z,98570.44
2022-09-23T07:10:53.101Z,98573.09
2022-09-23T07:13:21.015Z,98573.09
2022-09-23T07:15:47.154Z,98577.53
2022-09-23T07:18:13.296Z,98566.16
2022-09-23T07:20:39.447Z,98561.84
2022-09-23T07:23:05.588Z,98572.91
2022-09-23T07:25:31.999Z,98564.59
2022-09-23T07:27:58.325Z,98570.34
2022-09-23T07:30:25.624Z,98566.84
2022-09-23T07:32:51.991Z,98566.78
2022-09-23T07:35:18.104Z,98563.41
2022-09-23T07:37:44.211Z,98566.97
2022-09-23T07:40:10.406Z,98577.88
2022-09-23T07:42:36.564Z,98575.69
2022-09-23T07:45:02.661Z,98570.97
2022-09-23T07:47:28.772Z,98583.88
2022-09-23T07:49:54.875Z,98579.16
2022-09-23T07:52:20.998Z,98575.00
2022-09-23T07:54:47.113Z,98572.56
2022-09-23T07:57:13.199Z,98582.31
2022-09-23T07:59:39.280Z,98569.53
2022-09-23T08:02:05.437Z,98562.44
2022-09-23T08:04:31.525Z,98572.91
2022-09-23T08:06:57.660Z,98572.44
2022-09-23T08:09:23.789Z,98572.00
2022-09-23T08:11:49.901Z,98573.59
2022-09-23T08:14:15.994Z,98573.59
2022-09-23T08:16:42.116Z,98581.94
2022-09-23T08:19:08.271Z,98581.09
2022-09-23T08:21:34.408Z,98578.50
2022-09-23T08:24:00.639Z,98574.94
2022-09-23T08:26:26.798Z,98578.78
2022-09-23T08:28:52.886Z,98576.16
2022-09-23T08:31:19.254Z,98564.44
2022-09-23T08:33:45.406Z,98573.72
2022-09-23T08:36:11.505Z,98580.28
2022-09-23T08:38:37.626Z,98572.84
2022-09-23T08:41:03.709Z,98573.09
2022-09-23T08:43:29.796Z,98567.34
2022-09-23T08:45:55.968Z,98572.50
2022-09-23T08:48:22.098Z,98568.69
2022-09-23T08:50:48.213Z,98566.56
2022-09-23T08:53:14.336Z,98569.47
2022-09-23T08:55:40.464Z,98565.84
2022-09-23T09:00:52.647Z,98569.47
2022-09-23T09:03:18.818Z,98567.25
2022-09-23T09:05:53.699Z,98564.59
2022-09-23T09:08:20.403Z,98568.59
2022-09-23T09:10:46.509Z,98571.09
2022-09-23T09:13:12.599Z,98556.97
2022-09-23T09:15:38.762Z,98559.88
2022-09-23T09:18:04.881Z,98565.03
2022-09-23T09:20:30.979Z,98558.69
2022-09-23T09:22:57.099Z,98559.34
2022-09-23T09:25:23.200Z,98550.28
2022-09-23T09:27:49.300Z,98554.25
2022-09-23T09:30:15.408Z,98554.66
2022-09-23T09:32:41.518Z,98545.19
2022-09-23T09:35:07.611Z,98544.16
2022-09-23T09:37:33.735Z,98545.00
2022-09-23T09:39:59.864Z,98549.13
2022-09-23T09:42:26.103Z,98540.47
2022-09-23T09:44:52.243Z,98541.09
2022-09-23T09:47:18.342Z,98541.72
2022-09-23T09:49:44.445Z,98547.19
2022-09-23T09:52:10.576Z,98547.44
2022-09-23T09:54:36.612Z,98550.34
2022-09-23T09:57:02.706Z,98548.91
2022-09-23T09:59:29.002Z,98544.19
2022-09-23T10:01:55.113Z,98537.19
2022-09-23T10:04:21.258Z,98537.16
2022-09-23T10:06:47.422Z,98537.78
2022-09-23T10:09:13.519Z,98531.81
2022-09-23T10:11:39.627Z,98537.53
2022-09-23T10:14:05.757Z,98531.94
2022-09-23T10:16:32.001Z,98535.41
2022-09-23T10:18:58.165Z,98535.19
2022-09-23T10:21:27.759Z,98535.38
2022-09-23T10:23:54.239Z,98539.06
2022-09-23T10:26:20.340Z,98538.00
2022-09-23T10:28:46.458Z,98530.75
2022-09-23T10:31:12.682Z,98533.41
2022-09-23T10:33:38.819Z,98536.28
2022-09-23T10:36:05.217Z,98530.72
2022-09-23T10:38:31.314Z,98529.66
2022-09-23T10:40:57.499Z,98526.97
2022-09-23T10:43:23.680Z,98532.91
2022-09-23T10:45:49.804Z,98523.78
2022-09-23T10:48:15.924Z,98525.66
2022-09-23T10:50:42.031Z,98524.91
2022-09-23T10:53:08.126Z,98513.97
2022-09-23T10:55:34.235Z,98515.56
2022-09-23T10:58:00.374Z,98510.38
2022-09-23T11:00:26.479Z,98513.25
2022-09-23T11:02:52.605Z,98508.78
2022-09-23T11:05:18.717Z,98511.75
2022-09-23T11:07:44.802Z,98510.16
2022-09-23T11:10:23.366Z,98513.75
2022-09-23T11:12:57.042Z,98505.84
2022-09-23T11:15:23.139Z,98504.69
2022-09-23T11:17:49.263Z,98506.56
2022-09-23T11:20:15.398Z,98503.91
2022-09-23T11:22:41.488Z,98499.44
2022-09-23T11:25:07.584Z,98504.41
2022-09-23T11:27:33.777Z,98492.72
2022-09-23T11:29:59.908Z,98490.13
2022-09-23T11:32:27.763Z,98492.72
2022-09-23T11:34:55.032Z,98483.56
2022-09-23T11:37:21.365Z,98486.25
2022-09-23T11:39:47.493Z,98483.09
2022-09-23T11:42:16.931Z,98480.25
2022-09-23T11:44:43.025Z,98483.19
2022-09-23T11:47:09.130Z,98479.84
2022-09-23T11:49:35.243Z,98471.22
2022-09-23T11:52:01.346Z,98473.34
2022-09-23T11:54:27.451Z,98468.66
2022-09-23T11:56:53.557Z,98472.88
2022-09-23T11:59:26.489Z,98470.56
2022-09-23T12:01:56.710Z,98458.59
2022-09-23T12:04:23.493Z,98461.91
2022-09-23T12:06:49.904Z,98453.72
2022-09-23T12:09:16.027Z,98460.06
2022-09-23T12:11:42.225Z,98458.34
2022-09-23T12:14:08.376Z,98459.41
2022-09-23T12:16:34.648Z,98455.44
2022-09-23T12:19:00.915Z,98452.75
2022-09-23T12:21:49.261Z,98454.63
2022-09-23T12:24:17.130Z,98452.03
2022-09-23T12:26:45.175Z,98453.56
2022-09-23T12:29:11.294Z,98453.72
2022-09-23T12:31:41.105Z,98456.53
2022-09-23T12:34:09.306Z,98458.22
2022-09-23T12:36:35.430Z,98447.00
2022-09-23T12:39:01.560Z,98450.06
2022-09-23T12:41:27.696Z,98444.03
2022-09-23T12:43:53.813Z,98444.16
2022-09-23T12:46:19.971Z,98440.53
2022-09-23T12:48:46.191Z,98435.69
2022-09-23T12:51:12.288Z,98434.16
2022-09-23T12:53:38.421Z,98440.47
2022-09-23T12:56:04.524Z,98433.41
2022-09-23T12:58:30.607Z,98434.63
2022-09-23T13:00:56.853Z,98431.19
2022-09-23T13:03:22.996Z,98431.88
2022-09-23T13:05:49.077Z,98427.84
2022-09-23T13:08:15.180Z,98422.31
2022-09-23T13:10:41.284Z,98421.66
2022-09-23T13:13:07.388Z,98420.00
2022-09-23T13:15:33.505Z,98420.13
2022-09-23T13:17:59.627Z,98416.50
2022-09-23T13:20:25.734Z,98415.31
2022-09-23T13:22:51.843Z,98408.91
2022-09-23T13:25:17.938Z,98413.22
2022-09-23T13:27:44.133Z,98401.41
2022-09-23T13:30:10.317Z,98401.41
2022-09-23T13:32:36.415Z,98395.47
2022-09-23T13:35:02.522Z,98396.56
2022-09-23T13:37:28.642Z,98401.13
2022-09-23T13:39:54.728Z,98400.78
2022-09-23T13:42:20.847Z,98401.72
2022-09-23T13:44:47.016Z,98400.78
2022-09-23T13:47:13.123Z,98403.47
2022-09-23T13:49:39.216Z,98395.50
2022-09-23T13:52:05.338Z,98400.22
2022-09-23T13:54:31.437Z,98397.94
2022-09-23T13:56:57.537Z,98395.97
2022-09-23T13:59:23.652Z,98387.63
2022-09-23T14:01:49.791Z,98397.63
2022-09-23T14:04:15.947Z,98396.53
2022-09-23T14:06:42.059Z,98392.63
2022-09-23T14:09:08.162Z,98388.38
2022-09-23T14:11:34.266Z,98386.66
2022-09-23T14:14:00.449Z,98386.34
2022-09-23T14:16:26.710Z,98394.50
2022-09-23T14:18:52.892Z,98378.38
2022-09-23T14:21:19.017Z,98380.44
2022-09-23T14:23:45.230Z,98379.63
2022-09-23T14:26:11.338Z,98387.50
2022-09-23T14:28:37.453Z,98375.72
2022-09-23T14:31:03.533Z,98374.81
2022-09-23T14:33:29.615Z,98371.44
2022-09-23T14:35:56.306Z,98374.06
2022-09-23T14:38:22.403Z,98370.13
2022-09-23T14:40:48.532Z,98368.28
2022-09-23T14:43:14.682Z,98373.19
2022-09-23T14:45:40.861Z,98364.53
2022-09-23T14:48:06.979Z,98354.88
2022-09-23T14:50:33.091Z,98355.50
2022-09-23T14:52:59.181Z,98358.44
2022-09-23T14:55:25.276Z,98358.44
2022-09-23T14:57:51.383Z,98352.38
2022-09-23T15:00:17.470Z,98357.28
2022-09-23T15:02:43.550Z,98351.75
2022-09-23T15:05:09.704Z,98344.88
2022-09-23T15:07:35.803Z,98347.59
2022-09-23T15:10:01.890Z,98350.84
2022-09-23T15:12:27.982Z,98355.09
2022-09-23T15:14:54.072Z,98351.38
2022-09-23T15:17:20.168Z,98352.72
2022-09-23T15:19:46.293Z,98347.16
2022-09-23T15:22:14.467Z,98347.13
2022-09-23T15:24:40.577Z,98345.13
2022-09-23T15:27:06.692Z,98347.84
2022-09-23T15:29:32.787Z,98343.94
2022-09-23T15:31:58.975Z,98355.91
2022-09-23T15:34:25.110Z,98352.00
2022-09-23T15:36:51.219Z,98345.22
2022-09-23T15:39:17.358Z,98345.88
2022-09-23T15:41:43.487Z,98347.34
2022-09-23T15:44:09.666Z,98352.69
2022-09-23T15:46:35.800Z,98349.41
2022-09-23T15:49:02.001Z,98348.16
2022-09-23T15:51:28.210Z,98340.56
2022-09-23T15:53:54.310Z,98343.00
2022-09-23T15:56:20.497Z,98345.50
2022-09-23T15:58:46.597Z,98349.00
2022-09-23T16:01:12.781Z,98351.06
2022-09-23T16:03:38.908Z,98341.84
2022-09-23T16:06:04.994Z,98341.53
2022-09-23T16:08:31.086Z,98348.06
2022-09-23T16:10:57.204Z,98339.63
2022-09-23T16:13:23.315Z,98348.06
2022-09-23T16:15:49.415Z,98349.84
2022-09-23T16:18:15.514Z,98350.72
2022-09-23T16:20:41.614Z,98353.97
2022-09-23T16:23:07.701Z,98354.59
2022-09-23T16:25:33.876Z,98352.81
2022-09-23T16:27:59.974Z,98354.22
2022-09-23T16:30:26.064Z,98359.41
2022-09-23T16:32:52.191Z,98355.72
2022-09-23T16:35:18.299Z,98355.69
2022-09-23T16:37:44.475Z,98352.63
2022-09-23T16:40:10.992Z,98347.91
2022-09-23T16:42:37.154Z,98348.72
2022-09-23T16:45:03.253Z,98346.84
2022-09-23T16:47:29.390Z,98350.56
2022-09-23T16:49:55.491Z,98345.47
2022-09-23T16:52:21.593Z,98348.34
2022-09-23T16:54:47.714Z,98353.25
2022-09-23T16:57:13.806Z,98353.81
2022-09-23T16:59:39.887Z,98357.72
2022-09-23T17:02:06.022Z,98361.53
2022-09-23T17:04:32.185Z,98356.59
2022-09-23T17:06:58.298Z,98354.53
2022-09-23T17:09:24.410Z,98349.41
2022-09-23T17:11:50.506Z,98358.22
2022-09-23T17:14:16.593Z,98350.63
2022-09-23T17:16:42.807Z,98347.38
2022-09-23T17:19:08.956Z,98357.84
2022-09-23T17:21:35.049Z,98348.59
2022-09-23T17:24:01.157Z,98352.31
2022-09-23T17:26:27.249Z,98344.28
2022-09-23T17:28:53.357Z,98348.41
2022-09-23T17:31:19.544Z,98345.31
2022-09-23T17:33:45.753Z,98353.13
2022-09-23T17:36:11.881Z,98343.25
2022-09-23T17:38:38.506Z,98339.34
2022-09-23T17:41:04.673Z,98330.69
2022-09-23T17:43:30.989Z,98334.38
2022-09-23T17:45:57.234Z,98335.03
2022-09-23T17:48:23.395Z,98336.09
2022-09-23T17:50:49.492Z,98333.19
2022-09-23T17:53:15.622Z,98335.22
2022-09-23T17:55:41.722Z,98334.41
2022-09-23T17:58:07.830Z,98328.63
2022-09-23T18:00:34.485Z,98325.13
2022-09-23T18:03:00.586Z,98318.53
2022-09-23T18:05:26.683Z,98310.34
2022-09-23T18:07:52.820Z,98308.50
2022-09-23T18:10:18.923Z,98301.09
2022-09-23T18:12:45.089Z,98308.88
2022-09-23T18:15:11.351Z,98313.00
2022-09-23T18:17:37.499Z,98314.84
2022-09-23T18:20:03.835Z,98318.34
2022-09-23T18:22:29.961Z,98314.63
2022-09-23T18:24:56.117Z,98317.50
2022-09-23T18:27:22.218Z,98321.84
2022-09-23T18:29:48.938Z,98322.66
2022-09-23T18:32:15.163Z,98320.19
2022-09-23T18:34:41.302Z,98323.69
2022-09-23T18:37:15.276Z,98320.19
2022-09-23T18:39:41.987Z,98318.75
2022-09-23T18:42:08.115Z,98308.88
2022-09-23T18:44:34.214Z,98308.91
2022-09-23T18:47:00.366Z,98315.47
2022-09-23T18:49:26.505Z,98321.97
2022-09-23T18:51:52.635Z,98318.66
2022-09-23T18:54:18.760Z,98317.09
2022-09-23T18:56:44.866Z,98326.13
2022-09-23T18:59:10.982Z,98320.59
2022-09-23T19:01:37.116Z,98315.00
2022-09-23T19:04:03.430Z,98316.25
2022-09-23T19:06:29.609Z,98311.28
2022-09-23T19:08:55.725Z,98318.88
2022-09-23T19:11:21.844Z,98321.72
2022-09-23T19:13:47.956Z,98318.22
2022-09-23T19:16:14.080Z,98311.66
2022-09-23T19:18:40.228Z,98310.81
2022-09-23T19:21:07.153Z,98311.19
2022-09-23T19:23:33.312Z,98311.13
2022-09-23T19:25:59.439Z,98320.09
2022-09-23T19:28:25.560Z,98314.63
2022-09-23T19:30:51.650Z,98306.78
2022-09-23T19:33:17.798Z,98308.63
2022-09-23T19:35:43.898Z,98307.59
2022-09-23T19:38:09.993Z,98308.06
2022-09-23T19:40:36.164Z,98310.03
2022-09-23T19:43:02.301Z,98308.31
2022-09-23T19:45:28.422Z,98304.56
2022-09-23T19:47:54.556Z,98311.44
2022-09-23T19:50:20.731Z,98300.06
2022-09-23T19:52:46.904Z,98298.13
2022-09-23T19:55:13.056Z,98301.13
2022-09-23T19:57:39.197Z,98309.16
2022-09-23T20:00:05.356Z,98305.44
2022-09-23T20:02:31.512Z,98302.34
2022-09-23T20:04:57.722Z,98300.09
2022-09-23T20:07:23.892Z,98291.22
2022-09-23T20:09:50.035Z,98287.06
2022-09-23T20:12:16.221Z,98298.72
2022-09-23T20:14:42.357Z,98299.81
2022-09-23T20:17:08.479Z,98289.16
2022-09-23T20:19:34.590Z,98286.66
2022-09-23T20:22:00.678Z,98292.06
2022-09-23T20:24:26.803Z,98280.44
2022-09-23T20:26:52.919Z,98284.75
2022-09-23T20:29:19.025Z,98272.03
2022-09-23T20:31:45.187Z,98278.44
2022-09-23T20:34:11.315Z,98277.34
2022-09-23T20:36:37.460Z,98272.75
2022-09-23T20:39:03.592Z,98278.66
2022-09-23T20:41:29.687Z,98280.41
2022-09-23T20:43:55.791Z,98274.59
2022-09-23T20:46:22.035Z,98269.06
2022-09-23T20:48:48.166Z,98277.50
2022-09-23T20:51:14.256Z,98280.97
2022-09-23T20:53:40.544Z,98280.41
2022-09-23T20:56:06.864Z,98280.69
2022-09-23T20:58:32.998Z,98275.44
2022-09-23T21:00:59.284Z,98275.38
2022-09-23T21:03:25.429Z,98273.97
2022-09-23T21:05:51.512Z,98274.22
2022-09-23T21:08:18.154Z,98277.00
2022-09-23T21:10:44.368Z,98275.06
2022-09-23T21:13:10.488Z,98274.94
2022-09-23T21:15:36.941Z,98276.19
2022-09-23T21:18:03.086Z,98272.63
2022-09-23T21:20:29.181Z,98272.50
2022-09-23T21:22:55.286Z,98267.75
2022-09-23T21:25:29.612Z,98262.38
2022-09-23T21:27:56.315Z,98262.13
2022-09-23T21:30:22.485Z,98256.31
2022-09-23T21:32:48.726Z,98267.75
2022-09-23T21:35:14.857Z,98269.84
2022-09-23T21:37:41.377Z,98269.78
2022-09-23T21:40:07.539Z,98266.06
2022-09-23T21:42:33.669Z,98268.91
2022-09-23T21:44:59.782Z,98263.00
2022-09-23T21:47:25.886Z,98266.63
2022-09-23T21:49:52.003Z,98271.22
2022-09-23T21:52:18.089Z,98265.50
2022-09-23T21:54:44.206Z,98262.84
2022-09-23T21:57:10.325Z,98269.59
2022-09-23T21:59:36.427Z,98263.50
2022-09-23T22:02:02.534Z,98266.88
2022-09-23T22:04:28.749Z,98266.06
2022-09-23T22:06:54.930Z,98274.13
2022-09-23T22:09:21.040Z,98268.31
2022-09-23T22:11:47.152Z,98261.72
2022-09-23T22:14:13.237Z,98259.31
2022-09-23T22:16:39.373Z,98256.66
2022-09-23T22:19:05.873Z,98250.75
2022-09-23T22:21:31.969Z,98256.03
2022-09-23T22:23:58.055Z,98258.63
2022-09-23T22:26:24.158Z,98259.13
2022-09-23T22:28:50.253Z,98257.69
2022-09-23T22:31:16.454Z,98262.81
2022-09-23T22:33:42.616Z,98255.44
2022-09-23T22:36:08.705Z,98254.44
2022-09-23T22:38:34.799Z,98257.53
2022-09-23T22:41:01.046Z,98256.72
2022-09-23T22:43:27.197Z,98260.78
2022-09-23T22:45:53.271Z,98258.75
2022-09-23T22:48:19.372Z,98257.69
2022-09-23T22:50:45.456Z,98251.97
2022-09-23T22:53:11.537Z,98252.09
2022-09-23T22:55:38.422Z,98251.47
2022-09-23T22:58:27.592Z,98257.81
2022-09-23T23:00:50.609Z,98248.81
2022-09-23T23:03:16.738Z,98249.84
2022-09-23T23:05:42.855Z,98252.19
2022-09-23T23:08:08.953Z,98248.16
2022-09-23T23:10:35.148Z,98248.25
2022-09-23T23:13:01.233Z,98251.78
2022-09-23T23:15:27.338Z,98254.53
2022-09-23T23:17:53.427Z,98242.47
2022-09-23T23:20:19.521Z,98240.00
2022-09-23T23:22:45.630Z,98236.56
2022-09-23T23:25:11.713Z,98231.47
2022-09-23T23:27:37.815Z,98224.28
2022-09-23T23:30:03.944Z,98228.59
2022-09-23T23:32:30.038Z,98222.06
2022-09-23T23:34:56.124Z,98225.91
2022-09-23T23:37:22.274Z,98229.81
2022-09-23T23:39:48.370Z,98226.31
2022-09-23T23:42:14.470Z,98224.44
2022-09-23T23:44:40.566Z,98216.72
2022-09-23T23:47:06.724Z,98220.56
2022-09-23T23:49:32.831Z,98213.09
2022-09-23T23:51:58.946Z,98208.63
2022-09-23T23:54:25.035Z,98206.00
2022-09-23T23:56:51.131Z,98204.97
2022-09-23T23:59:18.027Z,98208.09
